EWG09NC LEPA-EDDK
Flight info
| Callsign | EWG09NC |
|---|---|
| Flight time | 2h 6m |
| Altitude | 36000 |
| Route | MEROS DCT LAPIT DCT CHELY DCT LUMAS DCT MAXIR DCT LUSOL DCT BODRU DCT OKTET DCT IRMAR DCT KINES DCT VANAS DCT MOBLO DCT UBIMA DCT GILIR DCT PENDU DCT IXILU DCT GIVOR/N0398F300 DCT SORAL DCT IBERA/N0365F240 N853 DIK/N0354F210 N853 ARCKY T853 IBESA T860 ERUKI |
| Aircraft | A320/M-SDE2E3FGIJ1RWXYZ/HB1 |
Departure
| Time | 2026-04-22 16:38 |
|---|---|
| Airport | Palma de Mallorca Airport (LEPA) |
Arrival
| Time | 2026-04-22 18:44 |
|---|---|
| Airport | Cologne Bonn Airport (EDDK) |
| Time | Latitude | Longitude | Altitude | Speed | Heading |
|---|---|---|---|---|---|
| 2026-04-22 15:40 | 39.55019 | 2.73489 | 36 ft | 0 kts | 164° |
| 2026-04-22 16:27 | 39.55040 | 2.73480 | 38 ft | 4 kts | 145° |
| 2026-04-22 16:27 | 39.55056 | 2.73456 | 38 ft | 4 kts | 99° |
| 2026-04-22 16:27 | 39.55053 | 2.73426 | 38 ft | 2 kts | 59° |
| 2026-04-22 16:27 | 39.55052 | 2.73425 | 38 ft | 0 kts | 59° |
| 2026-04-22 16:31 | 39.55072 | 2.73468 | 36 ft | 14 kts | 58° |
| 2026-04-22 16:31 | 39.55127 | 2.73585 | 36 ft | 14 kts | 58° |
| 2026-04-22 16:31 | 39.55189 | 2.73626 | 38 ft | 12 kts | 331° |
| 2026-04-22 16:31 | 39.55290 | 2.73547 | 38 ft | 19 kts | 329° |
| 2026-04-22 16:32 | 39.55404 | 2.73458 | 36 ft | 16 kts | 329° |
| 2026-04-22 16:32 | 39.55467 | 2.73494 | 37 ft | 11 kts | 58° |
| 2026-04-22 16:32 | 39.55525 | 2.73570 | 38 ft | 10 kts | 337° |
| 2026-04-22 16:32 | 39.55604 | 2.73513 | 37 ft | 14 kts | 330° |
| 2026-04-22 16:33 | 39.55678 | 2.73550 | 38 ft | 16 kts | 59° |
| 2026-04-22 16:33 | 39.55752 | 2.73707 | 38 ft | 22 kts | 58° |
| 2026-04-22 16:33 | 39.55819 | 2.73850 | 37 ft | 17 kts | 58° |
| 2026-04-22 16:33 | 39.55877 | 2.73970 | 36 ft | 15 kts | 58° |
| 2026-04-22 16:34 | 39.55926 | 2.74075 | 38 ft | 13 kts | 58° |
| 2026-04-22 16:34 | 39.55969 | 2.74165 | 38 ft | 11 kts | 58° |
| 2026-04-22 16:34 | 39.56005 | 2.74242 | 38 ft | 9 kts | 58° |
| 2026-04-22 16:34 | 39.56036 | 2.74307 | 36 ft | 8 kts | 58° |
| 2026-04-22 16:35 | 39.56082 | 2.74406 | 38 ft | 16 kts | 58° |
| 2026-04-22 16:35 | 39.56137 | 2.74457 | 38 ft | 0 kts | 6° |
| 2026-04-22 16:36 | 39.56143 | 2.74457 | 38 ft | 6 kts | 359° |
| 2026-04-22 16:36 | 39.56208 | 2.74417 | 36 ft | 11 kts | 328° |
| 2026-04-22 16:36 | 39.56256 | 2.74341 | 38 ft | 13 kts | 272° |
| 2026-04-22 16:37 | 39.56230 | 2.74272 | 38 ft | 0 kts | 239° |
| 2026-04-22 16:37 | 39.56220 | 2.74250 | 37 ft | 20 kts | 239° |
| 2026-04-22 16:37 | 39.56011 | 2.73807 | 38 ft | 91 kts | 238° |
| 2026-04-22 16:38 | 39.55580 | 2.72895 | 38 ft | 144 kts | 238° |
| 2026-04-22 16:38 | 39.54989 | 2.71632 | 150 ft | 176 kts | 238° |
| 2026-04-22 16:38 | 39.54363 | 2.70289 | 876 ft | 173 kts | 238° |
| 2026-04-22 16:38 | 39.53724 | 2.68964 | 1566 ft | 176 kts | 237° |
| 2026-04-22 16:39 | 39.53036 | 2.67528 | 1850 ft | 198 kts | 238° |
| 2026-04-22 16:39 | 39.52285 | 2.65950 | 2247 ft | 212 kts | 238° |
| 2026-04-22 16:39 | 39.51504 | 2.64301 | 2802 ft | 215 kts | 238° |
| 2026-04-22 16:39 | 39.50720 | 2.62642 | 3396 ft | 217 kts | 237° |
| 2026-04-22 16:40 | 39.49894 | 2.61001 | 3917 ft | 223 kts | 231° |
| 2026-04-22 16:40 | 39.48606 | 2.59792 | 4252 ft | 242 kts | 205° |
| 2026-04-22 16:40 | 39.45335 | 2.57823 | 5272 ft | 270 kts | 207° |
| 2026-04-22 16:41 | 39.43604 | 2.56824 | 6058 ft | 275 kts | 197° |
| 2026-04-22 16:41 | 39.41680 | 2.56867 | 6769 ft | 285 kts | 163° |
| 2026-04-22 16:41 | 39.39998 | 2.58237 | 7490 ft | 291 kts | 138° |
| 2026-04-22 16:41 | 39.38542 | 2.60099 | 8190 ft | 296 kts | 140° |
| 2026-04-22 16:42 | 39.36990 | 2.61880 | 8862 ft | 302 kts | 136° |
| 2026-04-22 16:42 | 39.35542 | 2.63863 | 9551 ft | 307 kts | 134° |
| 2026-04-22 16:42 | 39.34037 | 2.65818 | 10203 ft | 309 kts | 137° |
| 2026-04-22 16:42 | 39.32406 | 2.67801 | 10410 ft | 334 kts | 138° |
| 2026-04-22 16:43 | 39.30634 | 2.69897 | 10650 ft | 352 kts | 138° |
| 2026-04-22 16:43 | 39.28814 | 2.72068 | 11171 ft | 360 kts | 136° |
| 2026-04-22 16:43 | 39.27342 | 2.74691 | 11806 ft | 365 kts | 112° |
| 2026-04-22 16:43 | 39.26827 | 2.77882 | 12449 ft | 366 kts | 90° |
| 2026-04-22 16:44 | 39.26807 | 2.81186 | 13106 ft | 370 kts | 89° |
| 2026-04-22 16:44 | 39.26806 | 2.84517 | 13715 ft | 373 kts | 89° |
| 2026-04-22 16:44 | 39.26990 | 2.87861 | 14309 ft | 375 kts | 78° |
| 2026-04-22 16:44 | 39.27654 | 2.91126 | 14897 ft | 378 kts | 67° |
| 2026-04-22 16:45 | 39.28768 | 2.94183 | 15462 ft | 378 kts | 57° |
| 2026-04-22 16:45 | 39.30079 | 2.97104 | 16016 ft | 382 kts | 57° |
| 2026-04-22 16:45 | 39.31414 | 3.00090 | 16566 ft | 386 kts | 58° |
| 2026-04-22 16:45 | 39.32761 | 3.03114 | 17119 ft | 390 kts | 58° |
| 2026-04-22 16:46 | 39.34115 | 3.06161 | 17630 ft | 392 kts | 58° |
| 2026-04-22 16:46 | 39.35475 | 3.09242 | 18136 ft | 397 kts | 58° |
| 2026-04-22 16:46 | 39.36849 | 3.12360 | 18644 ft | 400 kts | 58° |
| 2026-04-22 16:46 | 39.38230 | 3.15487 | 19143 ft | 403 kts | 58° |
| 2026-04-22 16:47 | 39.39630 | 3.18652 | 19641 ft | 406 kts | 57° |
| 2026-04-22 16:47 | 39.41042 | 3.21841 | 20107 ft | 409 kts | 58° |
| 2026-04-22 16:47 | 39.42002 | 3.24010 | 20421 ft | 411 kts | 58° |
| 2026-04-22 16:47 | 39.43900 | 3.28275 | 21053 ft | 415 kts | 57° |
| 2026-04-22 16:48 | 39.45375 | 3.31500 | 21515 ft | 417 kts | 56° |
| 2026-04-22 16:48 | 39.46872 | 3.34723 | 21931 ft | 419 kts | 56° |
| 2026-04-22 16:48 | 39.48384 | 3.37971 | 22328 ft | 423 kts | 56° |
| 2026-04-22 16:48 | 39.49903 | 3.41243 | 22731 ft | 426 kts | 56° |
| 2026-04-22 16:49 | 39.51427 | 3.44540 | 23133 ft | 428 kts | 57° |
| 2026-04-22 16:49 | 39.52953 | 3.47858 | 23516 ft | 430 kts | 56° |
| 2026-04-22 16:49 | 39.54489 | 3.51209 | 23915 ft | 433 kts | 56° |
| 2026-04-22 16:49 | 39.56028 | 3.54570 | 24291 ft | 435 kts | 56° |
| 2026-04-22 16:50 | 39.57575 | 3.57955 | 24674 ft | 438 kts | 56° |
| 2026-04-22 16:50 | 39.59127 | 3.61357 | 25035 ft | 439 kts | 56° |
| 2026-04-22 16:50 | 39.60687 | 3.64781 | 25386 ft | 441 kts | 56° |
| 2026-04-22 16:50 | 39.62252 | 3.68211 | 25717 ft | 443 kts | 57° |
| 2026-04-22 16:51 | 39.63827 | 3.71667 | 26051 ft | 446 kts | 56° |
| 2026-04-22 16:51 | 39.65408 | 3.75136 | 26385 ft | 448 kts | 56° |
| 2026-04-22 16:51 | 39.67000 | 3.78629 | 26715 ft | 450 kts | 56° |
| 2026-04-22 16:51 | 39.68590 | 3.82131 | 27029 ft | 452 kts | 57° |
| 2026-04-22 16:52 | 39.70186 | 3.85656 | 27340 ft | 454 kts | 57° |
| 2026-04-22 16:52 | 39.71785 | 3.89202 | 27632 ft | 456 kts | 57° |
| 2026-04-22 16:52 | 39.72847 | 3.91561 | 27840 ft | 457 kts | 57° |
| 2026-04-22 16:52 | 39.74999 | 3.96337 | 28238 ft | 459 kts | 57° |
| 2026-04-22 16:53 | 39.76601 | 3.99886 | 28511 ft | 462 kts | 57° |
| 2026-04-22 16:53 | 39.78224 | 4.03485 | 28804 ft | 463 kts | 57° |
| 2026-04-22 16:53 | 39.79853 | 4.07108 | 29069 ft | 464 kts | 57° |
| 2026-04-22 16:53 | 39.81484 | 4.10740 | 29310 ft | 465 kts | 57° |
| 2026-04-22 16:54 | 39.83234 | 4.14276 | 29532 ft | 465 kts | 50° |
| 2026-04-22 16:54 | 39.85402 | 4.17378 | 29779 ft | 462 kts | 39° |
| 2026-04-22 16:54 | 39.87915 | 4.19951 | 30017 ft | 459 kts | 29° |
| 2026-04-22 16:54 | 39.90714 | 4.21946 | 30303 ft | 458 kts | 20° |
| 2026-04-22 16:55 | 39.92684 | 4.22921 | 30501 ft | 455 kts | 13° |
| 2026-04-22 16:55 | 39.95742 | 4.23847 | 30805 ft | 450 kts | 6° |
| 2026-04-22 16:55 | 39.98817 | 4.24554 | 31219 ft | 447 kts | 6° |
| 2026-04-22 16:55 | 40.02862 | 4.25496 | 31777 ft | 443 kts | 6° |
| 2026-04-22 16:56 | 40.05886 | 4.26210 | 32216 ft | 441 kts | 6° |
| 2026-04-22 16:56 | 40.07918 | 4.26696 | 32523 ft | 437 kts | 6° |
| 2026-04-22 16:56 | 40.10893 | 4.27406 | 32934 ft | 432 kts | 6° |
| 2026-04-22 16:56 | 40.13838 | 4.28101 | 33266 ft | 429 kts | 6° |
| 2026-04-22 16:57 | 40.16757 | 4.28793 | 33587 ft | 425 kts | 6° |
| 2026-04-22 16:57 | 40.19666 | 4.29476 | 33905 ft | 425 kts | 5° |
| 2026-04-22 16:57 | 40.22579 | 4.30155 | 34008 ft | 424 kts | 5° |
| 2026-04-22 16:58 | 40.28339 | 4.31521 | 34036 ft | 419 kts | 5° |
| 2026-04-22 16:58 | 40.34072 | 4.32880 | 34029 ft | 419 kts | 6° |
| 2026-04-22 16:59 | 40.39824 | 4.34243 | 34033 ft | 421 kts | 5° |
| 2026-04-22 16:59 | 40.45558 | 4.35604 | 34035 ft | 421 kts | 6° |
| 2026-04-22 17:00 | 40.51322 | 4.36976 | 34030 ft | 420 kts | 6° |
| 2026-04-22 17:00 | 40.59983 | 4.39040 | 34037 ft | 422 kts | 6° |
| 2026-04-22 17:01 | 40.65759 | 4.40424 | 34036 ft | 423 kts | 6° |
| 2026-04-22 17:01 | 40.71529 | 4.41821 | 34033 ft | 422 kts | 6° |
| 2026-04-22 17:02 | 40.77309 | 4.43214 | 34029 ft | 422 kts | 6° |
| 2026-04-22 17:02 | 40.83098 | 4.44612 | 34035 ft | 422 kts | 6° |
| 2026-04-22 17:03 | 40.88840 | 4.46000 | 34046 ft | 423 kts | 6° |
| 2026-04-22 17:03 | 40.94649 | 4.47395 | 34044 ft | 424 kts | 6° |
| 2026-04-22 17:04 | 41.00439 | 4.48780 | 34028 ft | 422 kts | 6° |
| 2026-04-22 17:04 | 41.06221 | 4.50184 | 34044 ft | 423 kts | 6° |
| 2026-04-22 17:05 | 41.12025 | 4.51614 | 34050 ft | 423 kts | 7° |
| 2026-04-22 17:05 | 41.17829 | 4.53027 | 34049 ft | 424 kts | 6° |
| 2026-04-22 17:06 | 41.23634 | 4.54444 | 34045 ft | 424 kts | 7° |
| 2026-04-22 17:06 | 41.29439 | 4.55860 | 34052 ft | 424 kts | 7° |
| 2026-04-22 17:07 | 41.35252 | 4.57266 | 34056 ft | 425 kts | 6° |
| 2026-04-22 17:07 | 41.41020 | 4.58677 | 34054 ft | 424 kts | 7° |
| 2026-04-22 17:08 | 41.46827 | 4.60118 | 34056 ft | 424 kts | 7° |
| 2026-04-22 17:08 | 41.52617 | 4.61551 | 34054 ft | 422 kts | 7° |
| 2026-04-22 17:09 | 41.58407 | 4.62983 | 34058 ft | 425 kts | 7° |
| 2026-04-22 17:09 | 41.64208 | 4.64420 | 34055 ft | 423 kts | 7° |
| 2026-04-22 17:10 | 41.69998 | 4.65853 | 34057 ft | 423 kts | 7° |
| 2026-04-22 17:10 | 41.75577 | 4.68493 | 34059 ft | 431 kts | 25° |
| 2026-04-22 17:11 | 41.80741 | 4.72618 | 34070 ft | 431 kts | 26° |
| 2026-04-22 17:11 | 41.85902 | 4.76758 | 34087 ft | 433 kts | 26° |
| 2026-04-22 17:12 | 41.91068 | 4.80937 | 34092 ft | 434 kts | 27° |
| 2026-04-22 17:12 | 41.96242 | 4.85108 | 34089 ft | 434 kts | 27° |
| 2026-04-22 17:13 | 42.01425 | 4.89283 | 34079 ft | 434 kts | 27° |
| 2026-04-22 17:13 | 42.06577 | 4.93461 | 34083 ft | 432 kts | 27° |
| 2026-04-22 17:14 | 42.11723 | 4.97646 | 34089 ft | 432 kts | 27° |
| 2026-04-22 17:14 | 42.16843 | 5.01817 | 34079 ft | 434 kts | 26° |
| 2026-04-22 17:15 | 42.22002 | 5.06017 | 34092 ft | 432 kts | 26° |
| 2026-04-22 17:15 | 42.27153 | 5.10222 | 34096 ft | 432 kts | 26° |
| 2026-04-22 17:16 | 42.32292 | 5.14433 | 34087 ft | 431 kts | 26° |
| 2026-04-22 17:16 | 42.37428 | 5.18635 | 34099 ft | 432 kts | 26° |
| 2026-04-22 17:17 | 42.40007 | 5.20747 | 34290 ft | 433 kts | 26° |
| 2026-04-22 17:17 | 42.42580 | 5.22851 | 34558 ft | 432 kts | 26° |
| 2026-04-22 17:17 | 42.45154 | 5.24959 | 34795 ft | 433 kts | 26° |
| 2026-04-22 17:17 | 42.47726 | 5.27077 | 35050 ft | 432 kts | 26° |
| 2026-04-22 17:18 | 42.50293 | 5.29195 | 35296 ft | 431 kts | 26° |
| 2026-04-22 17:18 | 42.52858 | 5.31316 | 35497 ft | 431 kts | 26° |
| 2026-04-22 17:18 | 42.55417 | 5.33433 | 35702 ft | 431 kts | 27° |
| 2026-04-22 17:18 | 42.57978 | 5.35548 | 35883 ft | 431 kts | 27° |
| 2026-04-22 17:19 | 42.63103 | 5.39790 | 36105 ft | 432 kts | 26° |
| 2026-04-22 17:19 | 42.68224 | 5.44046 | 36109 ft | 431 kts | 27° |
| 2026-04-22 17:20 | 42.78440 | 5.52538 | 36107 ft | 429 kts | 27° |
| 2026-04-22 17:21 | 42.86088 | 5.58922 | 36117 ft | 430 kts | 27° |
| 2026-04-22 17:22 | 42.93735 | 5.65346 | 36116 ft | 428 kts | 26° |
| 2026-04-22 17:23 | 43.01356 | 5.71740 | 36105 ft | 429 kts | 26° |
| 2026-04-22 17:23 | 43.08951 | 5.78125 | 36092 ft | 428 kts | 26° |
| 2026-04-22 17:24 | 43.14026 | 5.82401 | 36092 ft | 429 kts | 26° |
| 2026-04-22 17:24 | 43.19105 | 5.86684 | 36093 ft | 428 kts | 26° |
| 2026-04-22 17:25 | 43.24141 | 5.90963 | 36099 ft | 430 kts | 26° |
| 2026-04-22 17:25 | 43.29231 | 5.95281 | 36104 ft | 430 kts | 26° |
| 2026-04-22 17:26 | 43.34332 | 5.99583 | 36107 ft | 430 kts | 26° |
| 2026-04-22 17:26 | 43.39589 | 6.03280 | 36109 ft | 420 kts | 12° |
| 2026-04-22 17:27 | 43.45250 | 6.04646 | 36105 ft | 409 kts | 359° |
| 2026-04-22 17:27 | 43.50942 | 6.05197 | 36121 ft | 411 kts | 359° |
| 2026-04-22 17:28 | 43.56671 | 6.05784 | 36127 ft | 413 kts | 359° |
| 2026-04-22 17:28 | 43.62414 | 6.06378 | 36128 ft | 413 kts | 359° |
| 2026-04-22 17:29 | 43.68152 | 6.06954 | 36139 ft | 414 kts | 359° |
| 2026-04-22 17:29 | 43.73895 | 6.07541 | 36153 ft | 413 kts | 359° |
| 2026-04-22 17:30 | 43.79499 | 6.09467 | 36125 ft | 427 kts | 19° |
| 2026-04-22 17:30 | 43.84825 | 6.13074 | 36161 ft | 430 kts | 20° |
| 2026-04-22 17:31 | 43.90178 | 6.16729 | 36157 ft | 428 kts | 20° |
| 2026-04-22 17:31 | 43.95519 | 6.20370 | 36155 ft | 427 kts | 20° |
| 2026-04-22 17:32 | 44.00834 | 6.23990 | 36133 ft | 424 kts | 20° |
| 2026-04-22 17:32 | 44.06133 | 6.27624 | 36126 ft | 424 kts | 20° |
| 2026-04-22 17:33 | 44.11411 | 6.31265 | 36121 ft | 423 kts | 20° |
| 2026-04-22 17:33 | 44.16692 | 6.34913 | 36108 ft | 425 kts | 20° |
| 2026-04-22 17:34 | 44.21972 | 6.38556 | 36129 ft | 426 kts | 20° |
| 2026-04-22 17:34 | 44.27283 | 6.42223 | 36126 ft | 426 kts | 20° |
| 2026-04-22 17:35 | 44.32592 | 6.45896 | 36147 ft | 427 kts | 20° |
| 2026-04-22 17:35 | 44.37898 | 6.49576 | 36162 ft | 425 kts | 20° |
| 2026-04-22 17:36 | 44.43199 | 6.53271 | 36151 ft | 426 kts | 20° |
| 2026-04-22 17:36 | 44.48512 | 6.56973 | 36155 ft | 427 kts | 20° |
| 2026-04-22 17:37 | 44.53826 | 6.60668 | 36154 ft | 425 kts | 20° |
| 2026-04-22 17:37 | 44.59116 | 6.64365 | 36153 ft | 425 kts | 20° |
| 2026-04-22 17:38 | 44.64377 | 6.68060 | 36160 ft | 426 kts | 20° |
| 2026-04-22 17:38 | 44.69539 | 6.71690 | 36164 ft | 424 kts | 19° |
| 2026-04-22 17:39 | 44.74839 | 6.75397 | 36147 ft | 425 kts | 19° |
| 2026-04-22 17:39 | 44.80288 | 6.78272 | 36166 ft | 412 kts | 4° |
| 2026-04-22 17:40 | 44.83104 | 6.78761 | 36166 ft | 405 kts | 356° |
| 2026-04-22 17:40 | 44.88710 | 6.78492 | 36165 ft | 403 kts | 352° |
| 2026-04-22 17:41 | 44.94296 | 6.78115 | 36172 ft | 401 kts | 352° |
| 2026-04-22 17:41 | 44.98928 | 6.77813 | 36161 ft | 402 kts | 352° |
| 2026-04-22 17:42 | 45.04519 | 6.77445 | 36161 ft | 401 kts | 352° |
| 2026-04-22 17:42 | 45.10094 | 6.77090 | 36156 ft | 401 kts | 352° |
| 2026-04-22 17:43 | 45.15658 | 6.76720 | 36132 ft | 399 kts | 352° |
| 2026-04-22 17:43 | 45.21217 | 6.76331 | 36130 ft | 401 kts | 352° |
| 2026-04-22 17:44 | 45.26734 | 6.75953 | 36119 ft | 398 kts | 352° |
| 2026-04-22 17:44 | 45.32277 | 6.75590 | 36252 ft | 400 kts | 352° |
| 2026-04-22 17:44 | 45.35056 | 6.75411 | 36377 ft | 401 kts | 352° |
| 2026-04-22 17:45 | 45.37848 | 6.75228 | 36516 ft | 402 kts | 352° |
| 2026-04-22 17:45 | 45.40641 | 6.75040 | 36760 ft | 401 kts | 352° |
| 2026-04-22 17:45 | 45.43423 | 6.74852 | 37011 ft | 400 kts | 352° |
| 2026-04-22 17:45 | 45.46203 | 6.74660 | 37255 ft | 399 kts | 352° |
| 2026-04-22 17:46 | 45.48971 | 6.74475 | 37503 ft | 397 kts | 352° |
| 2026-04-22 17:46 | 45.51727 | 6.74284 | 37752 ft | 397 kts | 352° |
| 2026-04-22 17:46 | 45.54480 | 6.74092 | 37994 ft | 395 kts | 352° |
| 2026-04-22 17:46 | 45.57223 | 6.73907 | 38103 ft | 397 kts | 353° |
| 2026-04-22 17:47 | 45.59993 | 6.73719 | 38115 ft | 400 kts | 353° |
| 2026-04-22 17:47 | 45.65578 | 6.73335 | 38116 ft | 402 kts | 353° |
| 2026-04-22 17:48 | 45.71171 | 6.72962 | 38117 ft | 402 kts | 353° |
| 2026-04-22 17:48 | 45.76754 | 6.72584 | 38119 ft | 402 kts | 352° |
| 2026-04-22 17:49 | 45.82330 | 6.72197 | 38117 ft | 401 kts | 352° |
| 2026-04-22 17:49 | 45.87899 | 6.71815 | 38114 ft | 399 kts | 353° |
| 2026-04-22 17:50 | 45.93423 | 6.71440 | 38117 ft | 401 kts | 352° |
| 2026-04-22 17:50 | 45.98995 | 6.71056 | 38115 ft | 401 kts | 352° |
| 2026-04-22 17:51 | 46.04576 | 6.70666 | 38117 ft | 402 kts | 353° |
| 2026-04-22 17:51 | 46.10173 | 6.70277 | 38116 ft | 402 kts | 353° |
| 2026-04-22 17:52 | 46.15583 | 6.68710 | 38111 ft | 396 kts | 338° |
| 2026-04-22 17:52 | 46.20786 | 6.66179 | 38093 ft | 394 kts | 339° |
| 2026-04-22 17:53 | 46.26000 | 6.63649 | 38105 ft | 396 kts | 338° |
| 2026-04-22 17:53 | 46.31219 | 6.61111 | 38116 ft | 396 kts | 339° |
| 2026-04-22 17:54 | 46.36427 | 6.58551 | 38124 ft | 395 kts | 338° |
| 2026-04-22 17:54 | 46.41634 | 6.55990 | 38114 ft | 396 kts | 339° |
| 2026-04-22 17:55 | 46.46855 | 6.53444 | 38125 ft | 395 kts | 339° |
| 2026-04-22 17:55 | 46.52073 | 6.50902 | 38132 ft | 396 kts | 339° |
| 2026-04-22 17:56 | 46.57311 | 6.48327 | 38150 ft | 397 kts | 339° |
| 2026-04-22 17:56 | 46.62542 | 6.45743 | 38150 ft | 395 kts | 339° |
| 2026-04-22 17:57 | 46.67725 | 6.43186 | 38149 ft | 397 kts | 339° |
| 2026-04-22 17:57 | 46.72967 | 6.40573 | 38141 ft | 398 kts | 339° |
| 2026-04-22 17:58 | 46.78213 | 6.37972 | 38144 ft | 398 kts | 339° |
| 2026-04-22 17:58 | 46.83469 | 6.35370 | 38164 ft | 399 kts | 339° |
| 2026-04-22 17:59 | 46.88738 | 6.32749 | 38171 ft | 400 kts | 339° |
| 2026-04-22 17:59 | 46.94014 | 6.30109 | 38170 ft | 400 kts | 339° |
| 2026-04-22 18:00 | 46.98401 | 6.27909 | 38167 ft | 401 kts | 339° |
| 2026-04-22 18:00 | 47.04574 | 6.24814 | 38171 ft | 402 kts | 339° |
| 2026-04-22 18:01 | 47.09686 | 6.21530 | 38166 ft | 403 kts | 332° |
| 2026-04-22 18:01 | 47.14716 | 6.17898 | 38168 ft | 404 kts | 332° |
| 2026-04-22 18:02 | 47.19746 | 6.14270 | 38170 ft | 405 kts | 333° |
| 2026-04-22 18:02 | 47.24797 | 6.10614 | 38172 ft | 405 kts | 333° |
| 2026-04-22 18:03 | 47.29862 | 6.06945 | 38183 ft | 406 kts | 333° |
| 2026-04-22 18:03 | 47.35104 | 6.03902 | 38186 ft | 408 kts | 346° |
| 2026-04-22 18:04 | 47.40786 | 6.03409 | 38177 ft | 411 kts | 358° |
| 2026-04-22 18:04 | 47.46525 | 6.03548 | 38177 ft | 412 kts | 358° |
| 2026-04-22 18:05 | 47.52277 | 6.03672 | 38170 ft | 414 kts | 358° |
| 2026-04-22 18:05 | 47.58029 | 6.03793 | 38165 ft | 412 kts | 358° |
| 2026-04-22 18:06 | 47.63737 | 6.03916 | 38168 ft | 413 kts | 358° |
| 2026-04-22 18:06 | 47.69488 | 6.04046 | 38174 ft | 413 kts | 358° |
| 2026-04-22 18:07 | 47.75221 | 6.04609 | 38178 ft | 416 kts | 9° |
| 2026-04-22 18:07 | 47.80861 | 6.06707 | 38173 ft | 419 kts | 11° |
| 2026-04-22 18:08 | 47.86521 | 6.08851 | 38179 ft | 420 kts | 11° |
| 2026-04-22 18:08 | 47.92193 | 6.10979 | 38188 ft | 420 kts | 11° |
| 2026-04-22 18:09 | 47.97890 | 6.13131 | 38198 ft | 424 kts | 11° |
| 2026-04-22 18:09 | 48.03604 | 6.15287 | 38214 ft | 423 kts | 11° |
| 2026-04-22 18:10 | 48.09271 | 6.17428 | 38231 ft | 424 kts | 11° |
| 2026-04-22 18:10 | 48.14981 | 6.19588 | 38222 ft | 424 kts | 11° |
| 2026-04-22 18:11 | 48.20709 | 6.21775 | 38240 ft | 423 kts | 10° |
| 2026-04-22 18:11 | 48.26440 | 6.23954 | 38248 ft | 425 kts | 11° |
| 2026-04-22 18:12 | 48.32151 | 6.26157 | 38244 ft | 422 kts | 12° |
| 2026-04-22 18:12 | 48.36860 | 6.27976 | 38245 ft | 420 kts | 11° |
| 2026-04-22 18:13 | 48.43494 | 6.30524 | 38237 ft | 421 kts | 11° |
| 2026-04-22 18:13 | 48.49164 | 6.32696 | 38232 ft | 421 kts | 12° |
| 2026-04-22 18:14 | 48.54863 | 6.34903 | 38253 ft | 423 kts | 12° |
| 2026-04-22 18:14 | 48.60549 | 6.37110 | 38260 ft | 420 kts | 12° |
| 2026-04-22 18:15 | 48.66233 | 6.39139 | 38252 ft | 418 kts | 5° |
| 2026-04-22 18:15 | 48.71968 | 6.39775 | 38251 ft | 416 kts | 2° |
| 2026-04-22 18:16 | 48.77762 | 6.40347 | 38249 ft | 417 kts | 2° |
| 2026-04-22 18:16 | 48.83564 | 6.40938 | 38243 ft | 418 kts | 2° |
| 2026-04-22 18:17 | 48.89367 | 6.41530 | 38247 ft | 418 kts | 2° |
| 2026-04-22 18:17 | 48.95183 | 6.42134 | 38246 ft | 420 kts | 2° |
| 2026-04-22 18:18 | 49.01080 | 6.42747 | 38248 ft | 421 kts | 2° |
| 2026-04-22 18:18 | 49.06970 | 6.43337 | 38264 ft | 422 kts | 2° |
| 2026-04-22 18:19 | 49.12793 | 6.43113 | 38265 ft | 419 kts | 348° |
| 2026-04-22 18:19 | 49.18388 | 6.40915 | 38269 ft | 417 kts | 345° |
| 2026-04-22 18:20 | 49.24018 | 6.38604 | 37892 ft | 423 kts | 345° |
| 2026-04-22 18:20 | 49.26853 | 6.37435 | 37337 ft | 421 kts | 345° |
| 2026-04-22 18:20 | 49.29677 | 6.36274 | 36793 ft | 418 kts | 345° |
| 2026-04-22 18:20 | 49.32489 | 6.35120 | 36242 ft | 417 kts | 345° |
| 2026-04-22 18:21 | 49.35282 | 6.33969 | 35693 ft | 416 kts | 345° |
| 2026-04-22 18:21 | 49.38084 | 6.32808 | 35136 ft | 419 kts | 346° |
| 2026-04-22 18:21 | 49.40901 | 6.31638 | 34571 ft | 419 kts | 346° |
| 2026-04-22 18:21 | 49.43703 | 6.30474 | 33994 ft | 416 kts | 346° |
| 2026-04-22 18:22 | 49.46487 | 6.29318 | 33422 ft | 413 kts | 346° |
| 2026-04-22 18:22 | 49.49217 | 6.28180 | 32854 ft | 410 kts | 346° |
| 2026-04-22 18:22 | 49.51956 | 6.27044 | 32277 ft | 407 kts | 346° |
| 2026-04-22 18:22 | 49.54681 | 6.25927 | 31702 ft | 403 kts | 346° |
| 2026-04-22 18:23 | 49.57384 | 6.24824 | 31126 ft | 400 kts | 346° |
| 2026-04-22 18:23 | 49.60068 | 6.23727 | 30552 ft | 398 kts | 347° |
| 2026-04-22 18:23 | 49.62733 | 6.22636 | 29978 ft | 396 kts | 347° |
| 2026-04-22 18:24 | 49.68030 | 6.20456 | 28827 ft | 391 kts | 347° |
| 2026-04-22 18:24 | 49.70650 | 6.19375 | 28248 ft | 389 kts | 347° |
| 2026-04-22 18:24 | 49.75850 | 6.17223 | 27093 ft | 386 kts | 347° |
| 2026-04-22 18:25 | 49.78444 | 6.16146 | 26526 ft | 384 kts | 347° |
| 2026-04-22 18:25 | 49.80149 | 6.15439 | 26162 ft | 382 kts | 347° |
| 2026-04-22 18:25 | 49.82698 | 6.14384 | 25728 ft | 376 kts | 348° |
| 2026-04-22 18:26 | 49.87737 | 6.14342 | 24918 ft | 358 kts | 19° |
| 2026-04-22 18:26 | 49.89977 | 6.15916 | 24550 ft | 351 kts | 28° |
| 2026-04-22 18:26 | 49.92115 | 6.17692 | 24181 ft | 348 kts | 28° |
| 2026-04-22 18:26 | 49.94246 | 6.19461 | 23796 ft | 348 kts | 28° |
| 2026-04-22 18:27 | 49.96381 | 6.21221 | 23423 ft | 345 kts | 28° |
| 2026-04-22 18:27 | 49.98503 | 6.22965 | 23053 ft | 349 kts | 28° |
| 2026-04-22 18:27 | 50.00738 | 6.24804 | 22683 ft | 375 kts | 28° |
| 2026-04-22 18:27 | 50.03069 | 6.26722 | 22292 ft | 382 kts | 28° |
| 2026-04-22 18:28 | 50.05416 | 6.28662 | 21917 ft | 382 kts | 28° |
| 2026-04-22 18:28 | 50.07759 | 6.30602 | 21542 ft | 380 kts | 28° |
| 2026-04-22 18:28 | 50.10083 | 6.32532 | 21150 ft | 376 kts | 29° |
| 2026-04-22 18:28 | 50.12400 | 6.34467 | 20787 ft | 377 kts | 29° |
| 2026-04-22 18:29 | 50.14703 | 6.36395 | 20413 ft | 374 kts | 29° |
| 2026-04-22 18:29 | 50.16955 | 6.38279 | 20043 ft | 370 kts | 28° |
| 2026-04-22 18:29 | 50.19225 | 6.40165 | 19670 ft | 369 kts | 29° |
| 2026-04-22 18:29 | 50.21486 | 6.42050 | 19334 ft | 365 kts | 28° |
| 2026-04-22 18:30 | 50.23728 | 6.43920 | 19284 ft | 365 kts | 29° |
| 2026-04-22 18:30 | 50.28217 | 6.47676 | 19291 ft | 367 kts | 29° |
| 2026-04-22 18:30 | 50.30476 | 6.49567 | 19199 ft | 369 kts | 29° |
| 2026-04-22 18:31 | 50.32724 | 6.51457 | 18707 ft | 365 kts | 29° |
| 2026-04-22 18:31 | 50.34959 | 6.53349 | 18206 ft | 362 kts | 29° |
| 2026-04-22 18:31 | 50.37164 | 6.55217 | 17697 ft | 359 kts | 29° |
| 2026-04-22 18:31 | 50.39357 | 6.57065 | 17193 ft | 357 kts | 29° |
| 2026-04-22 18:32 | 50.41540 | 6.58908 | 16696 ft | 355 kts | 29° |
| 2026-04-22 18:32 | 50.43706 | 6.60736 | 16196 ft | 353 kts | 29° |
| 2026-04-22 18:32 | 50.45857 | 6.62550 | 15696 ft | 350 kts | 29° |
| 2026-04-22 18:32 | 50.48005 | 6.64361 | 15181 ft | 349 kts | 29° |
| 2026-04-22 18:33 | 50.50134 | 6.66162 | 14683 ft | 346 kts | 29° |
| 2026-04-22 18:33 | 50.52241 | 6.67951 | 14181 ft | 345 kts | 29° |
| 2026-04-22 18:33 | 50.54350 | 6.69748 | 13681 ft | 343 kts | 29° |
| 2026-04-22 18:33 | 50.56447 | 6.71532 | 13178 ft | 340 kts | 29° |
| 2026-04-22 18:34 | 50.58524 | 6.73282 | 12668 ft | 337 kts | 27° |
| 2026-04-22 18:34 | 50.60731 | 6.74492 | 12248 ft | 335 kts | 13° |
| 2026-04-22 18:34 | 50.63033 | 6.74762 | 11879 ft | 331 kts | 358° |
| 2026-04-22 18:34 | 50.65305 | 6.74327 | 11499 ft | 328 kts | 354° |
| 2026-04-22 18:35 | 50.67535 | 6.73843 | 11123 ft | 321 kts | 354° |
| 2026-04-22 18:35 | 50.69729 | 6.73373 | 10743 ft | 317 kts | 354° |
| 2026-04-22 18:35 | 50.71883 | 6.72914 | 10374 ft | 315 kts | 354° |
| 2026-04-22 18:35 | 50.74050 | 6.72455 | 9993 ft | 315 kts | 354° |
| 2026-04-22 18:36 | 50.76223 | 6.72042 | 9614 ft | 313 kts | 360° |
| 2026-04-22 18:36 | 50.78381 | 6.72399 | 9132 ft | 312 kts | 12° |
| 2026-04-22 18:36 | 50.80501 | 6.73070 | 8634 ft | 311 kts | 13° |
| 2026-04-22 18:36 | 50.82612 | 6.73768 | 8128 ft | 306 kts | 13° |
| 2026-04-22 18:37 | 50.84654 | 6.74445 | 7625 ft | 294 kts | 13° |
| 2026-04-22 18:37 | 50.86626 | 6.75100 | 7119 ft | 284 kts | 13° |
| 2026-04-22 18:37 | 50.88531 | 6.75728 | 6617 ft | 276 kts | 13° |
| 2026-04-22 18:37 | 50.90379 | 6.76338 | 6119 ft | 268 kts | 14° |
| 2026-04-22 18:38 | 50.92185 | 6.76932 | 5627 ft | 263 kts | 13° |
| 2026-04-22 18:38 | 50.94003 | 6.77526 | 5125 ft | 269 kts | 14° |
| 2026-04-22 18:38 | 50.95830 | 6.78216 | 4619 ft | 270 kts | 23° |
| 2026-04-22 18:39 | 50.98515 | 6.82177 | 3606 ft | 266 kts | 53° |
| 2026-04-22 18:39 | 50.99604 | 6.84476 | 3135 ft | 254 kts | 53° |
| 2026-04-22 18:39 | 51.00607 | 6.86631 | 3015 ft | 234 kts | 54° |
| 2026-04-22 18:39 | 51.01249 | 6.88910 | 3017 ft | 227 kts | 78° |
| 2026-04-22 18:40 | 51.01287 | 6.91410 | 3025 ft | 231 kts | 97° |
| 2026-04-22 18:40 | 51.00790 | 6.93806 | 3011 ft | 225 kts | 116° |
| 2026-04-22 18:40 | 50.99862 | 6.95695 | 3017 ft | 213 kts | 133° |
| 2026-04-22 18:40 | 50.98794 | 6.97246 | 2979 ft | 204 kts | 134° |
| 2026-04-22 18:41 | 50.97761 | 6.98759 | 2786 ft | 203 kts | 133° |
| 2026-04-22 18:41 | 50.96718 | 7.00282 | 2530 ft | 205 kts | 134° |
| 2026-04-22 18:41 | 50.95688 | 7.01776 | 2318 ft | 192 kts | 134° |
| 2026-04-22 18:41 | 50.94717 | 7.03198 | 2041 ft | 188 kts | 135° |
| 2026-04-22 18:42 | 50.93781 | 7.04556 | 1784 ft | 176 kts | 134° |
| 2026-04-22 18:42 | 50.92909 | 7.05821 | 1527 ft | 162 kts | 136° |
| 2026-04-22 18:42 | 50.92114 | 7.06971 | 1340 ft | 150 kts | 134° |
| 2026-04-22 18:42 | 50.91360 | 7.08069 | 1117 ft | 145 kts | 135° |
| 2026-04-22 18:43 | 50.90635 | 7.09136 | 932 ft | 145 kts | 134° |
| 2026-04-22 18:43 | 50.89892 | 7.10218 | 792 ft | 144 kts | 135° |
| 2026-04-22 18:43 | 50.89164 | 7.11269 | 629 ft | 141 kts | 137° |
| 2026-04-22 18:43 | 50.88436 | 7.12331 | 408 ft | 143 kts | 135° |
| 2026-04-22 18:44 | 50.87711 | 7.13390 | 264 ft | 141 kts | 135° |
| 2026-04-22 18:44 | 50.87057 | 7.14345 | 253 ft | 107 kts | 137° |
| 2026-04-22 18:44 | 50.86754 | 7.14758 | 268 ft | 18 kts | 180° |
| 2026-04-22 18:44 | 50.86690 | 7.14614 | 266 ft | 10 kts | 245° |
| 2026-04-22 18:45 | 50.86663 | 7.14521 | 264 ft | 8 kts | 245° |
| 2026-04-22 18:45 | 50.86670 | 7.14443 | 263 ft | 7 kts | 318° |
| 2026-04-22 18:45 | 50.86708 | 7.14391 | 262 ft | 7 kts | 319° |
| 2026-04-22 18:45 | 50.86766 | 7.14308 | 259 ft | 17 kts | 317° |
| 2026-04-22 18:46 | 50.86866 | 7.14162 | 255 ft | 21 kts | 317° |
| 2026-04-22 18:46 | 50.86982 | 7.13994 | 249 ft | 26 kts | 317° |
| 2026-04-22 18:46 | 50.87114 | 7.13803 | 241 ft | 21 kts | 317° |
| 2026-04-22 18:46 | 50.87233 | 7.13631 | 237 ft | 24 kts | 317° |
| 2026-04-22 18:47 | 50.87348 | 7.13465 | 233 ft | 24 kts | 317° |
| 2026-04-22 18:47 | 50.87474 | 7.13281 | 233 ft | 25 kts | 318° |
| 2026-04-22 18:47 | 50.87604 | 7.13092 | 233 ft | 23 kts | 317° |
| 2026-04-22 18:47 | 50.87720 | 7.12925 | 234 ft | 21 kts | 317° |
| 2026-04-22 18:48 | 50.87752 | 7.12878 | 232 ft | 0 kts | 317° |
| 2026-04-22 18:52 | 50.87792 | 7.12805 | 232 ft | 13 kts | 284° |
| 2026-04-22 18:53 | 50.87772 | 7.12659 | 233 ft | 16 kts | 256° |
| 2026-04-22 18:53 | 50.87711 | 7.12521 | 232 ft | 19 kts | 198° |
| 2026-04-22 18:53 | 50.87583 | 7.12455 | 232 ft | 15 kts | 198° |
| 2026-04-22 18:53 | 50.87545 | 7.12345 | 235 ft | 12 kts | 295° |
| 2026-04-22 18:54 | 50.87584 | 7.12234 | 233 ft | 11 kts | 298° |
| 2026-04-22 18:54 | 50.87617 | 7.12140 | 234 ft | 9 kts | 303° |
| 2026-04-22 18:54 | 50.87670 | 7.12119 | 232 ft | 7 kts | 0° |
| 2026-04-22 18:54 | 50.87711 | 7.12138 | 232 ft | 5 kts | 43° |
| 2026-04-22 18:55 | 50.87722 | 7.12159 | 233 ft | 0 kts | 51° |